Alder Grove, Washington
Current Conditions -  °F | °C
As of 1:20 AM on Sunday 23 Nov 2014 (Local Time) from KSHN Reporting Station
Overcast Overcast  
Wind Chill: 42°   Ceiling: 1500
Heat Index: 46°   Visibility: 10mi
Dew Point: 44°   Wind: 7mph
Humidity: 93%   Direction: 190°S
Pressure: 30.12"   Gusts: NA
Location:  47.555°N, 123.746°W
Report Text: KSHN 230920Z AUTO 19006KT 10SM OVC015 08/07 A3012 RMK AO2 T00780067
Loading
Personal Weather Stations






























Interactive Weather Map New forecast layout! Learn more

10-Day Weather Forecast

Advertisements
Track Severe Weather on mobile